Marstein — LAQN — position and weather

sailwx.info

Track history (hours):
 
Tides and Currents Weather Stations Pressure Air Temp Water Temp Dewpoint Dewpoint Depression Visibility Wind Speed Wind Dir Waves Ship Positions

Marstein

Last reported at 2017-May-27 15:30 UTC. Time now 2017-May-27 15:38 UTC.
Position N 60°13' E 005°34'.

Length 87 m; draft 4.7 m.

Type: Passenger vessel. MMSI: 257317400.

Date/timePositionNaut miles runAvg speedWind from/ knotsBaromVisibWave heightAir tempDewpointWater temp
2017-May-27 15:30N 60°13' E 005°34'1 1.5
2017-May-27 14:58N 60°13' E 005°33'1 1.5
2017-May-27 14:00N 60°12' E 005°36'0 0.2
2017-May-27 13:30N 60°12' E 005°36'1 2.8
2017-May-27 13:00N 60°13' E 005°33'0 0.1
2017-May-27 12:19N 60°13' E 005°33'1 4.0
2017-May-27 12:00N 60°13' E 005°36'0 0.4
2017-May-27 11:30N 60°12' E 005°36'1 2.2
2017-May-27 10:50N 60°13' E 005°33'1 3.5
2017-May-27 10:30N 60°13' E 005°35'0 0.7
2017-May-27 10:00N 60°12' E 005°36'0 0.3
2017-May-27 09:30N 60°13' E 005°35'1 2.5
2017-May-27 09:00N 60°13' E 005°33'0 0.7
2017-May-27 08:28N 60°13' E 005°32'0 0.6
2017-May-27 07:52N 60°13' E 005°33'0 0.2
2017-May-27 07:30N 60°13' E 005°33'0 1.0
2017-May-27 07:00N 60°13' E 005°34'1 1.5
2017-May-27 06:30N 60°13' E 005°36'0 0.3
2017-May-27 06:00N 60°12' E 005°36'1 1.1
2017-May-27 05:31N 60°13' E 005°35'0 0.1
2017-May-27 05:01N 60°13' E 005°35'1 1.6
2017-May-27 04:30N 60°13' E 005°33'1 2.1
2017-May-27 03:50N 60°12' E 005°36'0 0.0
2017-May-27 03:23N 60°12' E 005°36'0 0.0
2017-May-27 02:53N 60°12' E 005°36'0 0.0
2017-May-27 02:29N 60°12' E 005°36'0 0.0
2017-May-27 01:56N 60°12' E 005°36'0 0.0
2017-May-27 01:29N 60°12' E 005°36'0 0.0
2017-May-27 00:53N 60°12' E 005°36'0 0.0
2017-May-27 00:26N 60°12' E 005°36'0 0.0
2017-May-26 23:44N 60°12' E 005°36'0 0.0
2017-May-26 23:29N 60°12' E 005°36'0 0.0
2017-May-26 22:59N 60°12' E 005°36'0 0.0
2017-May-26 22:29N 60°12' E 005°36'0 0.0
2017-May-26 21:57N 60°12' E 005°36'0 0.0
2017-May-26 21:30N 60°12' E 005°36'1 1.2
2017-May-26 21:00N 60°13' E 005°35'1 1.0
2017-May-26 20:30N 60°13' E 005°36'0 0.0
2017-May-26 20:00N 60°13' E 005°36'0 0.4
2017-May-26 19:29N 60°12' E 005°36'1 2.5
2017-May-26 19:00N 60°13' E 005°33'1 2.3
2017-May-26 18:30N 60°13' E 005°36'0 0.4
2017-May-26 18:00N 60°12' E 005°36'1 2.9
2017-May-26 17:30N 60°13' E 005°33'0 0.7
2017-May-26 17:00N 60°13' E 005°32'1 1.3
2017-May-26 16:30N 60°13' E 005°34'1 2.1
2017-May-26 16:00N 60°13' E 005°36'1 1.3
2017-May-26 15:30N 60°13' E 005°34'1 1.7
2017-May-26 14:59N 60°13' E 005°33'1 1.5
2017-May-26 14:00N 60°13' E 005°35'0 0.4
2017-May-26 13:30N 60°12' E 005°36'1 2.9
2017-May-26 13:00N 60°13' E 005°33'0 0.1
2017-May-26 12:20N 60°13' E 005°33'1 4.1
2017-May-26 12:00N 60°13' E 005°36'0 0.4
2017-May-26 11:30N 60°12' E 005°36'1 2.2
2017-May-26 10:50N 60°13' E 005°33'1 4.4
2017-May-26 10:30N 60°12' E 005°36'0 0.1
2017-May-26 10:00N 60°12' E 005°36'1 2.7
2017-May-26 09:30N 60°13' E 005°33'0 0.1
2017-May-26 08:55N 60°13' E 005°33'0 0.2
2017-May-26 08:24N 60°13' E 005°33'0 0.4
2017-May-26 07:52N 60°13' E 005°32'1 1.5
2017-May-26 07:29N 60°13' E 005°33'0 0.3
2017-May-26 07:00N 60°13' E 005°34'1 1.9
2017-May-26 06:30N 60°13' E 005°36'0 0.3
2017-May-26 06:00N 60°12' E 005°36'1 2.3
2017-May-26 05:24N 60°13' E 005°33'0 0.8
2017-May-26 04:56N 60°13' E 005°32'1 2.0
2017-May-26 04:30N 60°13' E 005°34'1 1.7
2017-May-26 04:00N 60°12' E 005°36'0 0.3
2017-May-26 03:30N 60°12' E 005°36'0 0.0
2017-May-26 02:57N 60°12' E 005°36'0 0.0
2017-May-26 02:21N 60°12' E 005°36'0 0.0
2017-May-26 02:00N 60°12' E 005°36'0 0.0
2017-May-26 01:30N 60°12' E 005°36'0 0.0
2017-May-26 01:00N 60°12' E 005°36'0 0.0
2017-May-26 00:30N 60°12' E 005°36'0 0.0
2017-May-26 00:00N 60°12' E 005°36'0 0.0
2017-May-25 23:30N 60°12' E 005°36'0 0.0
2017-May-25 23:00N 60°12' E 005°36'0 0.0
2017-May-25 22:18N 60°12' E 005°36'0 0.0
2017-May-25 21:59N 60°12' E 005°36'0 0.0
2017-May-25 21:30N 60°12' E 005°36'0 0.0
2017-May-25 21:00N 60°12' E 005°36'2 3.1
2017-May-25 20:30N 60°13' E 005°33'0 0.3
2017-May-25 20:00N 60°13' E 005°32'2 3.3
2017-May-25 19:30N 60°12' E 005°36'1 2.8
2017-May-25 19:00N 60°13' E 005°33'1 2.4
2017-May-25 18:30N 60°13' E 005°35'0 0.6
2017-May-25 18:00N 60°12' E 005°36'1 2.7
2017-May-25 17:30N 60°13' E 005°33'0 0.3
2017-May-25 16:55N 60°13' E 005°33'0 1.0
2017-May-25 16:30N 60°13' E 005°33'1 2.0
2017-May-25 15:59N 60°13' E 005°36'0 0.8
2017-May-25 15:30N 60°13' E 005°35'1 2.4
2017-May-25 14:59N 60°13' E 005°32'2 1.7
2017-May-25 14:00N 60°13' E 005°36'0 0.4
2017-May-25 13:31N 60°12' E 005°36'1 2.6
2017-May-25 13:00N 60°13' E 005°33'0 0.4
2017-May-25 12:21N 60°13' E 005°33'2 4.4
2017-May-25 12:00N 60°12' E 005°36'0 0.2
2017-May-25 11:30N 60°12' E 005°36'1 2.1
2017-May-25 10:50N 60°13' E 005°33'1 4.5
2017-May-25 10:31N 60°12' E 005°36'0 0.2
2017-May-25 10:00N 60°12' E 005°36'1 1.2
2017-May-25 09:30N 60°13' E 005°35'1 1.5
2017-May-25 09:00N 60°13' E 005°33'0 0.8
2017-May-25 08:29N 60°13' E 005°32'0 0.3
2017-May-25 07:52N 60°13' E 005°33'0 1.0
2017-May-25 07:30N 60°13' E 005°33'0 0.6
2017-May-25 07:00N 60°13' E 005°34'1 1.2
2017-May-25 06:30N 60°13' E 005°35'0 0.6
2017-May-25 06:00N 60°12' E 005°36'1 1.2
2017-May-25 05:30N 60°13' E 005°35'1 0.1
2017-May-24 22:06N 60°13' E 005°33'112.4
2017-May-24 22:00N 60°13' E 005°35'0 0.4
2017-May-24 21:30N 60°12' E 005°36'0 0.0
2017-May-24 21:00N 60°12' E 005°36'0 0.1
2017-May-24 20:30N 60°12' E 005°36'0 0.1
2017-May-24 20:00N 60°12' E 005°36'0 0.2
2017-May-24 19:29N 60°12' E 005°36'1 2.8
2017-May-24 19:00N 60°13' E 005°33'1 2.7
2017-May-24 18:30N 60°13' E 005°36'0 0.3
2017-May-24 18:00N 60°12' E 005°36'1 1.6
2017-May-24 17:30N 60°13' E 005°34'1 1.1
2017-May-24 16:57N 60°13' E 005°33'0 0.1
2017-May-24 16:19N 60°13' E 005°33'1 3.3
2017-May-24 15:59N 60°13' E 005°35'0 0.7
2017-May-24 15:30N 60°13' E 005°35'1 1.7
2017-May-24 14:58N 60°13' E 005°33'0 0.1
2017-May-24 14:19N 60°13' E 005°33'1 1.7
2017-May-24 13:30N 60°12' E 005°36'1 1.9
2017-May-24 12:59N 60°13' E 005°34'0 0.6
2017-May-24 12:20N 60°13' E 005°33'1 3.6
2017-May-24 12:00N 60°13' E 005°35'0 0.5
2017-May-24 11:30N 60°12' E 005°36'2 3.2
2017-May-24 10:58N 60°13' E 005°32'2 3.6
2017-May-24 10:30N 60°12' E 005°36'0 0.2
2017-May-24 10:00N 60°12' E 005°36'1 2.9
2017-May-24 09:30N 60°13' E 005°33'0 0.4
2017-May-24 08:58N 60°13' E 005°32'0 0.4
2017-May-24 08:24N 60°13' E 005°33'0 0.7
2017-May-24 08:00N 60°13' E 005°32'0 0.4
2017-May-24 07:30N 60°13' E 005°33'0 0.4
2017-May-24 07:00N 60°13' E 005°33'1 2.2
2017-May-24 06:30N 60°13' E 005°35'0 0.5
2017-May-24 06:00N 60°12' E 005°36'2 3.2
2017-May-24 05:28N 60°13' E 005°32'0 0.4
2017-May-24 04:50N 60°13' E 005°33'0 1.2
2017-May-24 04:30N 60°13' E 005°34'1 1.9
2017-May-24 04:00N 60°13' E 005°35'0 0.5
2017-May-24 03:30N 60°12' E 005°36'0 0.0
2017-May-24 02:59N 60°12' E 005°36'0 0.0
2017-May-24 02:29N 60°12' E 005°36'0 0.0
2017-May-24 02:00N 60°12' E 005°36'0 0.0
2017-May-24 01:30N 60°12' E 005°36'0 0.0
2017-May-24 01:00N 60°12' E 005°36'0 0.0
2017-May-24 00:30N 60°12' E 005°36'0 0.0
2017-May-24 00:00N 60°12' E 005°36'0 0.0
2017-May-23 23:30N 60°12' E 005°36'0 0.0
2017-May-23 23:00N 60°12' E 005°36'0 0.0
2017-May-23 22:30N 60°12' E 005°36'0 0.0
2017-May-23 22:00N 60°12' E 005°36'0 0.0
2017-May-23 21:30N 60°12' E 005°36'1 1.5
2017-May-23 21:00N 60°13' E 005°34'0 0.9
2017-May-23 20:30N 60°13' E 005°35'0 0.3
2017-May-23 20:00N 60°13' E 005°36'0 0.3
2017-May-23 19:28N 60°12' E 005°36'1 2.9
2017-May-23 18:59N 60°13' E 005°33'1 2.7
2017-May-23 18:30N 60°13' E 005°35'0 0.4
2017-May-23 18:01N 60°12' E 005°36'1 2.7
2017-May-23 17:30N 60°13' E 005°33'0 0.1
2017-May-23 16:54N 60°13' E 005°33'0 0.4
2017-May-23 16:29N 60°13' E 005°33'1 3.1
2017-May-23 16:00N 60°12' E 005°36'1 1.1
2017-May-23 15:30N 60°13' E 005°35'1 1.7
2017-May-23 14:56N 60°13' E 005°33'0 0.1
2017-May-23 14:19N 60°13' E 005°33'1 1.8
2017-May-23 13:30N 60°12' E 005°36'1 2.7
2017-May-23 12:59N 60°13' E 005°33'0 0.7
2017-May-23 12:23N 60°13' E 005°32'1 2.5
2017-May-23 12:00N 60°13' E 005°34'1 1.5
2017-May-23 11:30N 60°12' E 005°36'1 2.1
2017-May-23 10:49N 60°13' E 005°33'1 4.4
2017-May-23 10:30N 60°12' E 005°36'0 0.0
2017-May-23 10:00N 60°12' E 005°36'1 2.7
2017-May-23 09:30N 60°13' E 005°33'0 0.1
2017-May-23 08:57N 60°13' E 005°33'0 0.1
2017-May-23 08:25N 60°13' E 005°33'0 0.1
2017-May-23 07:52N 60°13' E 005°33'0 0.9
2017-May-23 07:30N 60°13' E 005°34'0 0.5
2017-May-23 07:00N 60°13' E 005°33'1 2.4
2017-May-23 06:30N 60°13' E 005°35'0 0.4
2017-May-23 06:00N 60°12' E 005°36'1 2.4
2017-May-23 05:25N 60°13' E 005°33'0 0.1
2017-May-23 04:50N 60°13' E 005°33'0 1.0
2017-May-23 04:30N 60°13' E 005°34'1 2.0
2017-May-23 04:00N 60°12' E 005°36'0 0.2
2017-May-23 03:30N 60°12' E 005°36'0 0.0
2017-May-23 02:59N 60°12' E 005°36'0 0.0
2017-May-23 02:29N 60°12' E 005°36'0 0.0
2017-May-23 01:41N 60°12' E 005°36'0 0.0
2017-May-23 01:29N 60°12' E 005°36'0 0.0
2017-May-23 00:53N 60°12' E 005°36'0 0.0
2017-May-23 00:17N 60°12' E 005°36'0 0.0
2017-May-22 23:41N 60°12' E 005°36'0 0.0
2017-May-22 23:29N 60°12' E 005°36'0 0.0
2017-May-22 22:59N 60°12' E 005°36'0 0.0
2017-May-22 22:11N 60°12' E 005°36'0 0.0
2017-May-22 22:00N 60°12' E 005°36'0 0.0
2017-May-22 21:30N 60°12' E 005°36'0 0.8
2017-May-22 20:59N 60°13' E 005°35'0 0.1
2017-May-22 20:31N 60°13' E 005°35'0 0.1
2017-May-22 20:00N 60°13' E 005°35'0 0.8
2017-May-22 19:27N 60°12' E 005°36'1 3.0
2017-May-22 19:00N 60°13' E 005°33'1 2.4
2017-May-22 18:30N 60°13' E 005°35'0 0.5
2017-May-22 18:00N 60°12' E 005°36'1 2.7
2017-May-22 17:30N 60°13' E 005°33'0 0.1
2017-May-22 16:53N 60°13' E 005°33'0 0.1
2017-May-22 16:29N 60°13' E 005°33'1 2.4
2017-May-22 16:00N 60°13' E 005°35'0 0.9
2017-May-22 15:30N 60°13' E 005°35'1 2.0
2017-May-22 14:57N 60°13' E 005°32'2 1.7
2017-May-22 14:00N 60°13' E 005°36'0 0.4
2017-May-22 13:30N 60°12' E 005°36'1 2.0
2017-May-22 13:00N 60°13' E 005°34'1 0.8
2017-May-22 12:21N 60°13' E 005°33'1 3.7
2017-May-22 12:00N 60°13' E 005°35'0 0.6
2017-May-22 11:30N 60°12' E 005°36'2 2.7
2017-May-22 10:53N 60°13' E 005°32'2 4.4
2017-May-22 10:30N 60°12' E 005°36'0 0.0
2017-May-22 10:00N 60°12' E 005°36'1 2.4
2017-May-22 09:30N 60°13' E 005°33'0 0.3
2017-May-22 08:58N 60°13' E 005°33'0 0.9
2017-May-22 08:28N 60°13' E 005°32'0 0.2
2017-May-22 07:52N 60°13' E 005°32'0 0.9
2017-May-22 07:30N 60°13' E 005°33'0 0.5
2017-May-22 07:00N 60°13' E 005°34'1 2.1
2017-May-22 06:30N 60°12' E 005°36'0 0.2
2017-May-22 06:00N 60°12' E 005°36'1 2.7
2017-May-22 05:29N 60°13' E 005°33'0 0.1
2017-May-22 04:52N 60°13' E 005°33'0 1.0
2017-May-22 04:30N 60°13' E 005°34'1 2.0
2017-May-22 04:00N 60°12' E 005°36'0 0.2
2017-May-22 03:30N 60°12' E 005°36'0 0.0
2017-May-22 03:00N 60°12' E 005°36'0 0.0
2017-May-22 02:30N 60°12' E 005°36'0 0.0
2017-May-22 02:00N 60°12' E 005°36'0 0.0
2017-May-22 01:30N 60°12' E 005°36'0 0.0
2017-May-22 01:00N 60°12' E 005°36'0 0.0
2017-May-22 00:30N 60°12' E 005°36'0 0.0
2017-May-22 00:00N 60°12' E 005°36'0 0.0
2017-May-21 23:30N 60°12' E 005°36'0 0.0
2017-May-21 22:59N 60°12' E 005°36'0 0.0
2017-May-21 22:30N 60°12' E 005°36'0 0.0
2017-May-21 22:00N 60°12' E 005°36'0 0.0
2017-May-21 21:30N 60°12' E 005°36'0 0.0
2017-May-21 21:00N 60°12' E 005°36'1 2.8
2017-May-21 20:29N 60°13' E 005°33'0 0.2
2017-May-21 19:41N 60°13' E 005°32'2 8.5
2017-May-21 19:30N 60°12' E 005°36'2 3.1
2017-May-21 19:00N 60°13' E 005°33'1 2.9
2017-May-21 18:30N 60°13' E 005°36'0 0.4
2017-May-21 18:00N 60°12' E 005°36'2 3.0
2017-May-21 17:29N 60°13' E 005°33'0 0.3
2017-May-21 16:57N 60°13' E 005°32'0 1.1
2017-May-21 16:30N 60°13' E 005°33'1 2.4
2017-May-21 16:00N 60°12' E 005°36'0 0.9
2017-May-21 15:30N 60°13' E 005°35'1 2.1
2017-May-21 14:59N 60°13' E 005°33'0 0.3
2017-May-21 14:23N 60°13' E 005°32'2 1.9
2017-May-21 13:30N 60°12' E 005°36'1 2.8
2017-May-21 13:00N 60°13' E 005°33'0 0.1
2017-May-21 12:19N 60°13' E 005°33'1 4.7
2017-May-21 12:00N 60°12' E 005°36'0 0.2
2017-May-21 11:30N 60°12' E 005°36'1 2.0
2017-May-21 10:49N 60°13' E 005°33'1 3.4
2017-May-21 10:30N 60°13' E 005°35'0 0.6
2017-May-21 09:58N 60°12' E 005°36'1 1.9
2017-May-21 09:30N 60°13' E 005°34'1 1.2
2017-May-21 08:59N 60°13' E 005°33'0 0.4
2017-May-21 08:28N 60°13' E 005°32'0 0.0
2017-May-21 08:00N 60°13' E 005°32'1 1.1
2017-May-21 07:30N 60°13' E 005°33'0 0.5
2017-May-21 07:00N 60°13' E 005°34'1 1.8
2017-May-21 06:30N 60°12' E 005°36'0 0.2
2017-May-21 06:00N 60°12' E 005°36'1 1.2
2017-May-21 05:29N 60°13' E 005°34'1 0.1
2017-May-20 21:10N 60°13' E 005°33'1 9.2
2017-May-20 21:00N 60°12' E 005°36'1 2.8
2017-May-20 20:30N 60°13' E 005°33'1 2.6
2017-May-20 19:57N 60°12' E 005°36'0 0.0
2017-May-20 19:29N 60°12' E 005°36'2 3.5
2017-May-20 19:00N 60°11' E 005°33'510.0
2017-May-20 18:30N 60°08' E 005°26'510.5
2017-May-20 18:00N 60°07' E 005°16'2 3.2
2017-May-20 17:30N 60°09' E 005°15'4 8.2
2017-May-20 16:59N 60°13' E 005°18'612.9
2017-May-20 16:30N 60°08' E 005°12'4 8.7
2017-May-20 16:00N 60°11' E 005°17'1 1.1
2017-May-20 15:30N 60°11' E 005°17'3 6.3
2017-May-20 14:59N 60°08' E 005°13'611.7
2017-May-20 14:30N 60°13' E 005°17'4 4.3
2017-May-20 13:30N 60°09' E 005°16'4 8.3
2017-May-20 13:00N 60°13' E 005°18'612.9
2017-May-20 12:30N 60°07' E 005°12'5 9.1
2017-May-20 12:00N 60°11' E 005°17'0 0.3
2017-May-20 11:30N 60°11' E 005°17'4 8.7
2017-May-20 11:00N 60°07' E 005°12'612.2
2017-May-20 10:30N 60°13' E 005°18'3 5.9
2017-May-20 10:00N 60°10' E 005°16'2 4.2
2017-May-20 09:30N 60°08' E 005°14'611.0
2017-May-20 09:00N 60°13' E 005°17'510.3
2017-May-20 08:30N 60°08' E 005°14'1 1.7
2017-May-20 08:00N 60°09' E 005°16'4 8.7
2017-May-20 07:30N 60°13' E 005°18'612.4
2017-May-20 07:00N 60°08' E 005°13'3 5.5
2017-May-20 06:30N 60°10' E 005°16'4 7.2
2017-May-20 06:00N 60°13' E 005°18'611.9
2017-May-20 05:30N 60°08' E 005°13'3 5.2
2017-May-20 05:00N 60°10' E 005°16'4 7.4
2017-May-20 04:30N 60°13' E 005°17'611.7
2017-May-20 04:00N 60°08' E 005°13'1 1.6
2017-May-20 03:30N 60°07' E 005°12'0 0.0
2017-May-20 03:00N 60°07' E 005°12'0 0.0
2017-May-20 02:30N 60°07' E 005°12'0 0.0
2017-May-20 02:00N 60°07' E 005°12'0 0.0
2017-May-20 01:30N 60°07' E 005°12'0 0.0
2017-May-20 01:00N 60°07' E 005°12'0 0.0
2017-May-20 00:30N 60°07' E 005°12'0 0.0
2017-May-20 00:00N 60°07' E 005°12'0 0.0
2017-May-19 23:30N 60°07' E 005°12'0 0.0
2017-May-19 23:00N 60°07' E 005°12'510.4
2017-May-19 22:30N 60°12' E 005°17'2 3.1
2017-May-19 22:00N 60°13' E 005°17'3 6.8
2017-May-19 21:30N 60°10' E 005°16'2 4.1
2017-May-19 21:00N 60°08' E 005°14'510.8
2017-May-19 20:30N 60°13' E 005°17'5 9.2
2017-May-19 20:00N 60°09' E 005°15'1 1.8
2017-May-19 19:30N 60°08' E 005°14'510.8
2017-May-19 19:00N 60°13' E 005°17'4 7.8
2017-May-19 18:30N 60°10' E 005°16'2 4.8
2017-May-19 18:00N 60°08' E 005°13'611.9
2017-May-19 17:30N 60°13' E 005°17'3 5.0
2017-May-19 17:00N 60°11' E 005°17'4 8.5
2017-May-19 16:30N 60°07' E 005°12'510.6
2017-May-19 15:59N 60°12' E 005°18'0 1.0
2017-May-19 15:30N 60°13' E 005°18'612.1
2017-May-19 15:00N 60°07' E 005°12'7 6.6
2017-May-19 14:00N 60°13' E 005°17'4 8.4
2017-May-19 13:29N 60°09' E 005°16'2 5.1
2017-May-19 13:00N 60°07' E 005°12'611.8
2017-May-19 12:30N 60°13' E 005°18'1 1.8
2017-May-19 12:00N 60°12' E 005°17'510.6
2017-May-19 11:30N 60°07' E 005°12'4 8.6
2017-May-19 11:00N 60°11' E 005°17'2 3.1
2017-May-19 10:29N 60°13' E 005°18'612.1
2017-May-19 10:00N 60°07' E 005°12'4 7.9
2017-May-19 09:30N 60°11' E 005°17'1 2.4
2017-May-19 09:00N 60°12' E 005°17'510.3
2017-May-19 08:30N 60°07' E 005°12'5 9.4
2017-May-19 08:00N 60°11' E 005°17'0 0.8
2017-May-19 07:30N 60°12' E 005°18'510.5
2017-May-19 07:00N 60°07' E 005°12'510.1
2017-May-19 06:30N 60°12' E 005°17'1 2.5
2017-May-19 06:00N 60°11' E 005°17'4 7.8
2017-May-19 05:30N 60°07' E 005°12'511.0
2017-May-19 05:00N 60°12' E 005°17'1 2.6
2017-May-19 04:30N 60°13' E 005°17'611.7
2017-May-19 04:00N 60°08' E 005°13'1 1.4
2017-May-19 03:28N 60°07' E 005°12'0 0.0
2017-May-19 02:58N 60°07' E 005°12'0 0.0
2017-May-19 02:28N 60°07' E 005°12'0 0.0
2017-May-19 01:58N 60°07' E 005°12'0 0.0
2017-May-19 01:28N 60°07' E 005°12'0 0.0
2017-May-19 00:58N 60°07' E 005°12'0 0.0
2017-May-19 00:28N 60°07' E 005°12'0 0.0
2017-May-18 23:58N 60°07' E 005°12'5 9.5
2017-May-18 23:29N 60°07' E 005°21'612.2
2017-May-18 23:00N 60°10' E 005°32'3 4.7
2017-May-18 22:24N 60°12' E 005°36'0 0.1
2017-May-18 21:56N 60°12' E 005°36'0 0.0
2017-May-18 21:30N 60°12' E 005°36'1 1.4
2017-May-18 21:00N 60°13' E 005°34'1 1.3
2017-May-18 20:29N 60°12' E 005°36'0 0.1
2017-May-18 20:00N 60°12' E 005°36'0 0.2
2017-May-18 19:30N 60°12' E 005°36'1 2.9
2017-May-18 18:59N 60°13' E 005°33'1 2.7
2017-May-18 18:30N 60°13' E 005°35'0 0.4
2017-May-18 18:00N 60°12' E 005°36'1 2.8
2017-May-18 17:30N 60°13' E 005°33'0 0.3
2017-May-18 16:54N 60°13' E 005°33'0 0.8
2017-May-18 16:30N 60°13' E 005°33'1 2.4
2017-May-18 16:00N 60°13' E 005°36'1 1.3
2017-May-18 15:30N 60°13' E 005°34'1 1.5
2017-May-18 14:56N 60°13' E 005°33'1 1.6
2017-May-18 14:00N 60°13' E 005°36'0 0.3
2017-May-18 13:30N 60°12' E 005°36'1 2.0
2017-May-18 12:59N 60°13' E 005°34'0 0.7
2017-May-18 12:20N 60°13' E 005°33'1 3.6
2017-May-18 12:00N 60°13' E 005°35'0 0.5
2017-May-18 11:30N 60°12' E 005°36'1 2.1
2017-May-18 10:50N 60°13' E 005°33'1 4.3
2017-May-18 10:29N 60°12' E 005°36'0 0.0
2017-May-18 10:00N 60°12' E 005°36'1 2.7
2017-May-18 09:30N 60°13' E 005°33'0 0.1
2017-May-18 08:58N 60°13' E 005°33'0 0.6
2017-May-18 08:29N 60°13' E 005°32'0 0.0
2017-May-18 07:55N 60°13' E 005°32'1 1.5
2017-May-18 07:30N 60°13' E 005°33'0 0.4
2017-May-18 06:59N 60°13' E 005°33'1 2.7
2017-May-18 06:30N 60°12' E 005°36'0 0.2
2017-May-18 06:00N 60°12' E 005°36'0 0.3
2017-May-18 05:20N 60°13' E 005°35'1 2.3
2017-May-18 04:49N 60°13' E 005°33'0 1.5
2017-May-18 04:30N 60°13' E 005°34'1 1.8
2017-May-18 04:00N 60°12' E 005°36'0 0.2
2017-May-18 03:29N 60°12' E 005°36'0 0.0
2017-May-18 02:59N 60°12' E 005°36'0 0.0
2017-May-18 02:30N 60°12' E 005°36'0 0.0
2017-May-18 02:00N 60°12' E 005°36'0 0.0
2017-May-18 01:30N 60°12' E 005°36'0 0.0
2017-May-18 01:00N 60°12' E 005°36'0 0.0
2017-May-18 00:30N 60°12' E 005°36'0 0.0
2017-May-18 00:00N 60°12' E 005°36'0 0.0
2017-May-17 23:30N 60°12' E 005°36'1 2.4
2017-May-17 23:00N 60°12' E 005°34'612.5
2017-May-17 22:30N 60°08' E 005°24'612.0
2017-May-17 22:00N 60°07' E 005°12'510.2
2017-May-17 21:30N 60°12' E 005°17'1 2.1
2017-May-17 21:00N 60°11' E 005°17'3 6.1
2017-May-17 20:30N 60°08' E 005°13'611.6
2017-May-17 20:00N 60°13' E 005°17'2 3.8
2017-May-17 19:30N 60°12' E 005°17'2 3.1
2017-May-17 18:46N 60°09' E 005°16'413.1
2017-May-17 18:30N 60°13' E 005°18'3 7.0
2017-May-17 18:00N 60°10' E 005°16'1 2.4
2017-May-17 17:30N 60°09' E 005°15'510.3
2017-May-17 17:00N 60°13' E 005°17'611.2
2017-May-17 16:30N 60°08' E 005°14'3 5.2
2017-May-17 16:00N 60°10' E 005°16'  
Track history (hours):
 
Tides and Currents Weather Stations Pressure Air Temp Water Temp Dewpoint Dewpoint Depression Visibility Wind Speed Wind Dir Waves Ship Positions

Marstein

Last reported at 2017-May-27 15:30 UTC. Time now 2017-May-27 15:38 UTC.
Position N 60°13' E 005°34'.

Length 87 m; draft 4.7 m.

Type: Passenger vessel. MMSI: 257317400.

Date/timePositionNaut miles runAvg speedWind from/ knotsBaromVisibWave heightAir tempDewpointWater temp
2017-May-27 15:30N 60°13' E 005°34'1 1.5
2017-May-27 14:58N 60°13' E 005°33'1 1.5
2017-May-27 14:00N 60°12' E 005°36'0 0.2
2017-May-27 13:30N 60°12' E 005°36'1 2.8
2017-May-27 13:00N 60°13' E 005°33'0 0.1
2017-May-27 12:19N 60°13' E 005°33'1 4.0
2017-May-27 12:00N 60°13' E 005°36'0 0.4
2017-May-27 11:30N 60°12' E 005°36'1 2.2
2017-May-27 10:50N 60°13' E 005°33'1 3.5
2017-May-27 10:30N 60°13' E 005°35'0 0.7
2017-May-27 10:00N 60°12' E 005°36'0 0.3
2017-May-27 09:30N 60°13' E 005°35'1 2.5
2017-May-27 09:00N 60°13' E 005°33'0 0.7
2017-May-27 08:28N 60°13' E 005°32'0 0.6
2017-May-27 07:52N 60°13' E 005°33'0 0.2
2017-May-27 07:30N 60°13' E 005°33'0 1.0
2017-May-27 07:00N 60°13' E 005°34'1 1.5
2017-May-27 06:30N 60°13' E 005°36'0 0.3
2017-May-27 06:00N 60°12' E 005°36'1 1.1
2017-May-27 05:31N 60°13' E 005°35'0 0.1
2017-May-27 05:01N 60°13' E 005°35'1 1.6
2017-May-27 04:30N 60°13' E 005°33'1 2.1
2017-May-27 03:50N 60°12' E 005°36'0 0.0
2017-May-27 03:23N 60°12' E 005°36'0 0.0
2017-May-27 02:53N 60°12' E 005°36'0 0.0
2017-May-27 02:29N 60°12' E 005°36'0 0.0
2017-May-27 01:56N 60°12' E 005°36'0 0.0
2017-May-27 01:29N 60°12' E 005°36'0 0.0
2017-May-27 00:53N 60°12' E 005°36'0 0.0
2017-May-27 00:26N 60°12' E 005°36'0 0.0
2017-May-26 23:44N 60°12' E 005°36'0 0.0
2017-May-26 23:29N 60°12' E 005°36'0 0.0
2017-May-26 22:59N 60°12' E 005°36'0 0.0
2017-May-26 22:29N 60°12' E 005°36'0 0.0
2017-May-26 21:57N 60°12' E 005°36'0 0.0
2017-May-26 21:30N 60°12' E 005°36'1 1.2
2017-May-26 21:00N 60°13' E 005°35'1 1.0
2017-May-26 20:30N 60°13' E 005°36'0 0.0
2017-May-26 20:00N 60°13' E 005°36'0 0.4
2017-May-26 19:29N 60°12' E 005°36'1 2.5
2017-May-26 19:00N 60°13' E 005°33'1 2.3
2017-May-26 18:30N 60°13' E 005°36'0 0.4
2017-May-26 18:00N 60°12' E 005°36'1 2.9
2017-May-26 17:30N 60°13' E 005°33'0 0.7
2017-May-26 17:00N 60°13' E 005°32'1 1.3
2017-May-26 16:30N 60°13' E 005°34'1 2.1
2017-May-26 16:00N 60°13' E 005°36'1 1.3
2017-May-26 15:30N 60°13' E 005°34'1 1.7
2017-May-26 14:59N 60°13' E 005°33'1 1.5
2017-May-26 14:00N 60°13' E 005°35'0 0.4
2017-May-26 13:30N 60°12' E 005°36'1 2.9
2017-May-26 13:00N 60°13' E 005°33'0 0.1
2017-May-26 12:20N 60°13' E 005°33'1 4.1
2017-May-26 12:00N 60°13' E 005°36'0 0.4
2017-May-26 11:30N 60°12' E 005°36'1 2.2
2017-May-26 10:50N 60°13' E 005°33'1 4.4
2017-May-26 10:30N 60°12' E 005°36'0 0.1
2017-May-26 10:00N 60°12' E 005°36'1 2.7
2017-May-26 09:30N 60°13' E 005°33'0 0.1
2017-May-26 08:55N 60°13' E 005°33'0 0.2
2017-May-26 08:24N 60°13' E 005°33'0 0.4
2017-May-26 07:52N 60°13' E 005°32'1 1.5
2017-May-26 07:29N 60°13' E 005°33'0 0.3
2017-May-26 07:00N 60°13' E 005°34'1 1.9
2017-May-26 06:30N 60°13' E 005°36'0 0.3
2017-May-26 06:00N 60°12' E 005°36'1 2.3
2017-May-26 05:24N 60°13' E 005°33'0 0.8
2017-May-26 04:56N 60°13' E 005°32'1 2.0
2017-May-26 04:30N 60°13' E 005°34'1 1.7
2017-May-26 04:00N 60°12' E 005°36'0 0.3
2017-May-26 03:30N 60°12' E 005°36'0 0.0
2017-May-26 02:57N 60°12' E 005°36'0 0.0
2017-May-26 02:21N 60°12' E 005°36'0 0.0
2017-May-26 02:00N 60°12' E 005°36'0 0.0
2017-May-26 01:30N 60°12' E 005°36'0 0.0
2017-May-26 01:00N 60°12' E 005°36'0 0.0
2017-May-26 00:30N 60°12' E 005°36'0 0.0
2017-May-26 00:00N 60°12' E 005°36'0 0.0
2017-May-25 23:30N 60°12' E 005°36'0 0.0
2017-May-25 23:00N 60°12' E 005°36'0 0.0
2017-May-25 22:18N 60°12' E 005°36'0 0.0
2017-May-25 21:59N 60°12' E 005°36'0 0.0
2017-May-25 21:30N 60°12' E 005°36'0 0.0
2017-May-25 21:00N 60°12' E 005°36'2 3.1
2017-May-25 20:30N 60°13' E 005°33'0 0.3
2017-May-25 20:00N 60°13' E 005°32'2 3.3
2017-May-25 19:30N 60°12' E 005°36'1 2.8
2017-May-25 19:00N 60°13' E 005°33'1 2.4
2017-May-25 18:30N 60°13' E 005°35'0 0.6
2017-May-25 18:00N 60°12' E 005°36'1 2.7
2017-May-25 17:30N 60°13' E 005°33'0 0.3
2017-May-25 16:55N 60°13' E 005°33'0 1.0
2017-May-25 16:30N 60°13' E 005°33'1 2.0
2017-May-25 15:59N 60°13' E 005°36'0 0.8
2017-May-25 15:30N 60°13' E 005°35'1 2.4
2017-May-25 14:59N 60°13' E 005°32'2 1.7
2017-May-25 14:00N 60°13' E 005°36'0 0.4
2017-May-25 13:31N 60°12' E 005°36'1 2.6
2017-May-25 13:00N 60°13' E 005°33'0 0.4
2017-May-25 12:21N 60°13' E 005°33'2 4.4
2017-May-25 12:00N 60°12' E 005°36'0 0.2
2017-May-25 11:30N 60°12' E 005°36'1 2.1
2017-May-25 10:50N 60°13' E 005°33'1 4.5
2017-May-25 10:31N 60°12' E 005°36'0 0.2
2017-May-25 10:00N 60°12' E 005°36'1 1.2
2017-May-25 09:30N 60°13' E 005°35'1 1.5
2017-May-25 09:00N 60°13' E 005°33'0 0.8
2017-May-25 08:29N 60°13' E 005°32'0 0.3
2017-May-25 07:52N 60°13' E 005°33'0 1.0
2017-May-25 07:30N 60°13' E 005°33'0 0.6
2017-May-25 07:00N 60°13' E 005°34'1 1.2
2017-May-25 06:30N 60°13' E 005°35'0 0.6
2017-May-25 06:00N 60°12' E 005°36'1 1.2
2017-May-25 05:30N 60°13' E 005°35'1 0.1
2017-May-24 22:06N 60°13' E 005°33'112.4
2017-May-24 22:00N 60°13' E 005°35'0 0.4
2017-May-24 21:30N 60°12' E 005°36'0 0.0
2017-May-24 21:00N 60°12' E 005°36'0 0.1
2017-May-24 20:30N 60°12' E 005°36'0 0.1
2017-May-24 20:00N 60°12' E 005°36'0 0.2
2017-May-24 19:29N 60°12' E 005°36'1 2.8
2017-May-24 19:00N 60°13' E 005°33'1 2.7
2017-May-24 18:30N 60°13' E 005°36'0 0.3
2017-May-24 18:00N 60°12' E 005°36'1 1.6
2017-May-24 17:30N 60°13' E 005°34'1 1.1
2017-May-24 16:57N 60°13' E 005°33'0 0.1
2017-May-24 16:19N 60°13' E 005°33'1 3.3
2017-May-24 15:59N 60°13' E 005°35'0 0.7
2017-May-24 15:30N 60°13' E 005°35'1 1.7
2017-May-24 14:58N 60°13' E 005°33'0 0.1
2017-May-24 14:19N 60°13' E 005°33'1 1.7
2017-May-24 13:30N 60°12' E 005°36'1 1.9
2017-May-24 12:59N 60°13' E 005°34'0 0.6
2017-May-24 12:20N 60°13' E 005°33'1 3.6
2017-May-24 12:00N 60°13' E 005°35'0 0.5
2017-May-24 11:30N 60°12' E 005°36'2 3.2
2017-May-24 10:58N 60°13' E 005°32'2 3.6
2017-May-24 10:30N 60°12' E 005°36'0 0.2
2017-May-24 10:00N 60°12' E 005°36'1 2.9
2017-May-24 09:30N 60°13' E 005°33'0 0.4
2017-May-24 08:58N 60°13' E 005°32'0 0.4
2017-May-24 08:24N 60°13' E 005°33'0 0.7
2017-May-24 08:00N 60°13' E 005°32'0 0.4
2017-May-24 07:30N 60°13' E 005°33'0 0.4
2017-May-24 07:00N 60°13' E 005°33'1 2.2
2017-May-24 06:30N 60°13' E 005°35'0 0.5
2017-May-24 06:00N 60°12' E 005°36'2 3.2
2017-May-24 05:28N 60°13' E 005°32'0 0.4
2017-May-24 04:50N 60°13' E 005°33'0 1.2
2017-May-24 04:30N 60°13' E 005°34'1 1.9
2017-May-24 04:00N 60°13' E 005°35'0 0.5
2017-May-24 03:30N 60°12' E 005°36'0 0.0
2017-May-24 02:59N 60°12' E 005°36'0 0.0
2017-May-24 02:29N 60°12' E 005°36'0 0.0
2017-May-24 02:00N 60°12' E 005°36'0 0.0
2017-May-24 01:30N 60°12' E 005°36'0 0.0
2017-May-24 01:00N 60°12' E 005°36'0 0.0
2017-May-24 00:30N 60°12' E 005°36'0 0.0
2017-May-24 00:00N 60°12' E 005°36'0 0.0
2017-May-23 23:30N 60°12' E 005°36'0 0.0
2017-May-23 23:00N 60°12' E 005°36'0 0.0
2017-May-23 22:30N 60°12' E 005°36'0 0.0
2017-May-23 22:00N 60°12' E 005°36'0 0.0
2017-May-23 21:30N 60°12' E 005°36'1 1.5
2017-May-23 21:00N 60°13' E 005°34'0 0.9
2017-May-23 20:30N 60°13' E 005°35'0 0.3
2017-May-23 20:00N 60°13' E 005°36'0 0.3
2017-May-23 19:28N 60°12' E 005°36'1 2.9
2017-May-23 18:59N 60°13' E 005°33'1 2.7
2017-May-23 18:30N 60°13' E 005°35'0 0.4
2017-May-23 18:01N 60°12' E 005°36'1 2.7
2017-May-23 17:30N 60°13' E 005°33'0 0.1
2017-May-23 16:54N 60°13' E 005°33'0 0.4
2017-May-23 16:29N 60°13' E 005°33'1 3.1
2017-May-23 16:00N 60°12' E 005°36'1 1.1
2017-May-23 15:30N 60°13' E 005°35'1 1.7
2017-May-23 14:56N 60°13' E 005°33'0 0.1
2017-May-23 14:19N 60°13' E 005°33'1 1.8
2017-May-23 13:30N 60°12' E 005°36'1 2.7
2017-May-23 12:59N 60°13' E 005°33'0 0.7
2017-May-23 12:23N 60°13' E 005°32'1 2.5
2017-May-23 12:00N 60°13' E 005°34'1 1.5
2017-May-23 11:30N 60°12' E 005°36'1 2.1
2017-May-23 10:49N 60°13' E 005°33'1 4.4
2017-May-23 10:30N 60°12' E 005°36'0 0.0
2017-May-23 10:00N 60°12' E 005°36'1 2.7
2017-May-23 09:30N 60°13' E 005°33'0 0.1
2017-May-23 08:57N 60°13' E 005°33'0 0.1
2017-May-23 08:25N 60°13' E 005°33'0 0.1
2017-May-23 07:52N 60°13' E 005°33'0 0.9
2017-May-23 07:30N 60°13' E 005°34'0 0.5
2017-May-23 07:00N 60°13' E 005°33'1 2.4
2017-May-23 06:30N 60°13' E 005°35'0 0.4
2017-May-23 06:00N 60°12' E 005°36'1 2.4
2017-May-23 05:25N 60°13' E 005°33'0 0.1
2017-May-23 04:50N 60°13' E 005°33'0 1.0
2017-May-23 04:30N 60°13' E 005°34'1 2.0
2017-May-23 04:00N 60°12' E 005°36'0 0.2
2017-May-23 03:30N 60°12' E 005°36'0 0.0
2017-May-23 02:59N 60°12' E 005°36'0 0.0
2017-May-23 02:29N 60°12' E 005°36'0 0.0
2017-May-23 01:41N 60°12' E 005°36'0 0.0
2017-May-23 01:29N 60°12' E 005°36'0 0.0
2017-May-23 00:53N 60°12' E 005°36'0 0.0
2017-May-23 00:17N 60°12' E 005°36'0 0.0
2017-May-22 23:41N 60°12' E 005°36'0 0.0
2017-May-22 23:29N 60°12' E 005°36'0 0.0
2017-May-22 22:59N 60°12' E 005°36'0 0.0
2017-May-22 22:11N 60°12' E 005°36'0 0.0
2017-May-22 22:00N 60°12' E 005°36'0 0.0
2017-May-22 21:30N 60°12' E 005°36'0 0.8
2017-May-22 20:59N 60°13' E 005°35'0 0.1
2017-May-22 20:31N 60°13' E 005°35'0 0.1
2017-May-22 20:00N 60°13' E 005°35'0 0.8
2017-May-22 19:27N 60°12' E 005°36'1 3.0
2017-May-22 19:00N 60°13' E 005°33'1 2.4
2017-May-22 18:30N 60°13' E 005°35'0 0.5
2017-May-22 18:00N 60°12' E 005°36'1 2.7
2017-May-22 17:30N 60°13' E 005°33'0 0.1
2017-May-22 16:53N 60°13' E 005°33'0 0.1
2017-May-22 16:29N 60°13' E 005°33'1 2.4
2017-May-22 16:00N 60°13' E 005°35'0 0.9
2017-May-22 15:30N 60°13' E 005°35'1 2.0
2017-May-22 14:57N 60°13' E 005°32'2 1.7
2017-May-22 14:00N 60°13' E 005°36'0 0.4
2017-May-22 13:30N 60°12' E 005°36'1 2.0
2017-May-22 13:00N 60°13' E 005°34'1 0.8
2017-May-22 12:21N 60°13' E 005°33'1 3.7
2017-May-22 12:00N 60°13' E 005°35'0 0.6
2017-May-22 11:30N 60°12' E 005°36'2 2.7
2017-May-22 10:53N 60°13' E 005°32'2 4.4
2017-May-22 10:30N 60°12' E 005°36'0 0.0
2017-May-22 10:00N 60°12' E 005°36'1 2.4
2017-May-22 09:30N 60°13' E 005°33'0 0.3
2017-May-22 08:58N 60°13' E 005°33'0 0.9
2017-May-22 08:28N 60°13' E 005°32'0 0.2
2017-May-22 07:52N 60°13' E 005°32'0 0.9
2017-May-22 07:30N 60°13' E 005°33'0 0.5
2017-May-22 07:00N 60°13' E 005°34'1 2.1
2017-May-22 06:30N 60°12' E 005°36'0 0.2
2017-May-22 06:00N 60°12' E 005°36'1 2.7
2017-May-22 05:29N 60°13' E 005°33'0 0.1
2017-May-22 04:52N 60°13' E 005°33'0 1.0
2017-May-22 04:30N 60°13' E 005°34'1 2.0
2017-May-22 04:00N 60°12' E 005°36'0 0.2
2017-May-22 03:30N 60°12' E 005°36'0 0.0
2017-May-22 03:00N 60°12' E 005°36'0 0.0
2017-May-22 02:30N 60°12' E 005°36'0 0.0
2017-May-22 02:00N 60°12' E 005°36'0 0.0
2017-May-22 01:30N 60°12' E 005°36'0 0.0
2017-May-22 01:00N 60°12' E 005°36'0 0.0
2017-May-22 00:30N 60°12' E 005°36'0 0.0
2017-May-22 00:00N 60°12' E 005°36'0 0.0
2017-May-21 23:30N 60°12' E 005°36'0 0.0
2017-May-21 22:59N 60°12' E 005°36'0 0.0
2017-May-21 22:30N 60°12' E 005°36'0 0.0
2017-May-21 22:00N 60°12' E 005°36'0 0.0
2017-May-21 21:30N 60°12' E 005°36'0 0.0
2017-May-21 21:00N 60°12' E 005°36'1 2.8
2017-May-21 20:29N 60°13' E 005°33'0 0.2
2017-May-21 19:41N 60°13' E 005°32'2 8.5
2017-May-21 19:30N 60°12' E 005°36'2 3.1
2017-May-21 19:00N 60°13' E 005°33'1 2.9
2017-May-21 18:30N 60°13' E 005°36'0 0.4
2017-May-21 18:00N 60°12' E 005°36'2 3.0
2017-May-21 17:29N 60°13' E 005°33'0 0.3
2017-May-21 16:57N 60°13' E 005°32'0 1.1
2017-May-21 16:30N 60°13' E 005°33'1 2.4
2017-May-21 16:00N 60°12' E 005°36'0 0.9
2017-May-21 15:30N 60°13' E 005°35'1 2.1
2017-May-21 14:59N 60°13' E 005°33'0 0.3
2017-May-21 14:23N 60°13' E 005°32'2 1.9
2017-May-21 13:30N 60°12' E 005°36'1 2.8
2017-May-21 13:00N 60°13' E 005°33'0 0.1
2017-May-21 12:19N 60°13' E 005°33'1 4.7
2017-May-21 12:00N 60°12' E 005°36'0 0.2
2017-May-21 11:30N 60°12' E 005°36'1 2.0
2017-May-21 10:49N 60°13' E 005°33'1 3.4
2017-May-21 10:30N 60°13' E 005°35'0 0.6
2017-May-21 09:58N 60°12' E 005°36'1 1.9
2017-May-21 09:30N 60°13' E 005°34'1 1.2
2017-May-21 08:59N 60°13' E 005°33'0 0.4
2017-May-21 08:28N 60°13' E 005°32'0 0.0
2017-May-21 08:00N 60°13' E 005°32'1 1.1
2017-May-21 07:30N 60°13' E 005°33'0 0.5
2017-May-21 07:00N 60°13' E 005°34'1 1.8
2017-May-21 06:30N 60°12' E 005°36'0 0.2
2017-May-21 06:00N 60°12' E 005°36'1 1.2
2017-May-21 05:29N 60°13' E 005°34'1 0.1
2017-May-20 21:10N 60°13' E 005°33'1 9.2
2017-May-20 21:00N 60°12' E 005°36'1 2.8
2017-May-20 20:30N 60°13' E 005°33'1 2.6
2017-May-20 19:57N 60°12' E 005°36'0 0.0
2017-May-20 19:29N 60°12' E 005°36'2 3.5
2017-May-20 19:00N 60°11' E 005°33'510.0
2017-May-20 18:30N 60°08' E 005°26'510.5
2017-May-20 18:00N 60°07' E 005°16'2 3.2
2017-May-20 17:30N 60°09' E 005°15'4 8.2
2017-May-20 16:59N 60°13' E 005°18'612.9
2017-May-20 16:30N 60°08' E 005°12'4 8.7
2017-May-20 16:00N 60°11' E 005°17'1 1.1
2017-May-20 15:30N 60°11' E 005°17'3 6.3
2017-May-20 14:59N 60°08' E 005°13'611.7
2017-May-20 14:30N 60°13' E 005°17'4 4.3
2017-May-20 13:30N 60°09' E 005°16'4 8.3
2017-May-20 13:00N 60°13' E 005°18'612.9
2017-May-20 12:30N 60°07' E 005°12'5 9.1
2017-May-20 12:00N 60°11' E 005°17'0 0.3
2017-May-20 11:30N 60°11' E 005°17'4 8.7
2017-May-20 11:00N 60°07' E 005°12'612.2
2017-May-20 10:30N 60°13' E 005°18'3 5.9
2017-May-20 10:00N 60°10' E 005°16'2 4.2
2017-May-20 09:30N 60°08' E 005°14'611.0
2017-May-20 09:00N 60°13' E 005°17'510.3
2017-May-20 08:30N 60°08' E 005°14'1 1.7
2017-May-20 08:00N 60°09' E 005°16'4 8.7
2017-May-20 07:30N 60°13' E 005°18'612.4
2017-May-20 07:00N 60°08' E 005°13'3 5.5
2017-May-20 06:30N 60°10' E 005°16'4 7.2
2017-May-20 06:00N 60°13' E 005°18'611.9
2017-May-20 05:30N 60°08' E 005°13'3 5.2
2017-May-20 05:00N 60°10' E 005°16'4 7.4
2017-May-20 04:30N 60°13' E 005°17'611.7
2017-May-20 04:00N 60°08' E 005°13'1 1.6
2017-May-20 03:30N 60°07' E 005°12'0 0.0
2017-May-20 03:00N 60°07' E 005°12'0 0.0
2017-May-20 02:30N 60°07' E 005°12'0 0.0
2017-May-20 02:00N 60°07' E 005°12'0 0.0
2017-May-20 01:30N 60°07' E 005°12'0 0.0
2017-May-20 01:00N 60°07' E 005°12'0 0.0
2017-May-20 00:30N 60°07' E 005°12'0 0.0
2017-May-20 00:00N 60°07' E 005°12'0 0.0
2017-May-19 23:30N 60°07' E 005°12'0 0.0
2017-May-19 23:00N 60°07' E 005°12'510.4
2017-May-19 22:30N 60°12' E 005°17'2 3.1
2017-May-19 22:00N 60°13' E 005°17'3 6.8
2017-May-19 21:30N 60°10' E 005°16'2 4.1
2017-May-19 21:00N 60°08' E 005°14'510.8
2017-May-19 20:30N 60°13' E 005°17'5 9.2
2017-May-19 20:00N 60°09' E 005°15'1 1.8
2017-May-19 19:30N 60°08' E 005°14'510.8
2017-May-19 19:00N 60°13' E 005°17'4 7.8
2017-May-19 18:30N 60°10' E 005°16'2 4.8
2017-May-19 18:00N 60°08' E 005°13'611.9
2017-May-19 17:30N 60°13' E 005°17'3 5.0
2017-May-19 17:00N 60°11' E 005°17'4 8.5
2017-May-19 16:30N 60°07' E 005°12'510.6
2017-May-19 15:59N 60°12' E 005°18'0 1.0
2017-May-19 15:30N 60°13' E 005°18'612.1
2017-May-19 15:00N 60°07' E 005°12'7 6.6
2017-May-19 14:00N 60°13' E 005°17'4 8.4
2017-May-19 13:29N 60°09' E 005°16'2 5.1
2017-May-19 13:00N 60°07' E 005°12'611.8
2017-May-19 12:30N 60°13' E 005°18'1 1.8
2017-May-19 12:00N 60°12' E 005°17'510.6
2017-May-19 11:30N 60°07' E 005°12'4 8.6
2017-May-19 11:00N 60°11' E 005°17'2 3.1
2017-May-19 10:29N 60°13' E 005°18'612.1
2017-May-19 10:00N 60°07' E 005°12'4 7.9
2017-May-19 09:30N 60°11' E 005°17'1 2.4
2017-May-19 09:00N 60°12' E 005°17'510.3
2017-May-19 08:30N 60°07' E 005°12'5 9.4
2017-May-19 08:00N 60°11' E 005°17'0 0.8
2017-May-19 07:30N 60°12' E 005°18'510.5
2017-May-19 07:00N 60°07' E 005°12'510.1
2017-May-19 06:30N 60°12' E 005°17'1 2.5
2017-May-19 06:00N 60°11' E 005°17'4 7.8
2017-May-19 05:30N 60°07' E 005°12'511.0
2017-May-19 05:00N 60°12' E 005°17'1 2.6
2017-May-19 04:30N 60°13' E 005°17'611.7
2017-May-19 04:00N 60°08' E 005°13'1 1.4
2017-May-19 03:28N 60°07' E 005°12'0 0.0
2017-May-19 02:58N 60°07' E 005°12'0 0.0
2017-May-19 02:28N 60°07' E 005°12'0 0.0
2017-May-19 01:58N 60°07' E 005°12'0 0.0
2017-May-19 01:28N 60°07' E 005°12'0 0.0
2017-May-19 00:58N 60°07' E 005°12'0 0.0
2017-May-19 00:28N 60°07' E 005°12'0 0.0
2017-May-18 23:58N 60°07' E 005°12'5 9.5
2017-May-18 23:29N 60°07' E 005°21'612.2
2017-May-18 23:00N 60°10' E 005°32'3 4.7
2017-May-18 22:24N 60°12' E 005°36'0 0.1
2017-May-18 21:56N 60°12' E 005°36'0 0.0
2017-May-18 21:30N 60°12' E 005°36'1 1.4
2017-May-18 21:00N 60°13' E 005°34'1 1.3
2017-May-18 20:29N 60°12' E 005°36'0 0.1
2017-May-18 20:00N 60°12' E 005°36'0 0.2
2017-May-18 19:30N 60°12' E 005°36'1 2.9
2017-May-18 18:59N 60°13' E 005°33'1 2.7
2017-May-18 18:30N 60°13' E 005°35'0 0.4
2017-May-18 18:00N 60°12' E 005°36'1 2.8
2017-May-18 17:30N 60°13' E 005°33'0 0.3
2017-May-18 16:54N 60°13' E 005°33'0 0.8
2017-May-18 16:30N 60°13' E 005°33'1 2.4
2017-May-18 16:00N 60°13' E 005°36'1 1.3
2017-May-18 15:30N 60°13' E 005°34'1 1.5
2017-May-18 14:56N 60°13' E 005°33'1 1.6
2017-May-18 14:00N 60°13' E 005°36'0 0.3
2017-May-18 13:30N 60°12' E 005°36'1 2.0
2017-May-18 12:59N 60°13' E 005°34'0 0.7
2017-May-18 12:20N 60°13' E 005°33'1 3.6
2017-May-18 12:00N 60°13' E 005°35'0 0.5
2017-May-18 11:30N 60°12' E 005°36'1 2.1
2017-May-18 10:50N 60°13' E 005°33'1 4.3
2017-May-18 10:29N 60°12' E 005°36'0 0.0
2017-May-18 10:00N 60°12' E 005°36'1 2.7
2017-May-18 09:30N 60°13' E 005°33'0 0.1
2017-May-18 08:58N 60°13' E 005°33'0 0.6
2017-May-18 08:29N 60°13' E 005°32'0 0.0
2017-May-18 07:55N 60°13' E 005°32'1 1.5
2017-May-18 07:30N 60°13' E 005°33'0 0.4
2017-May-18 06:59N 60°13' E 005°33'1 2.7
2017-May-18 06:30N 60°12' E 005°36'0 0.2
2017-May-18 06:00N 60°12' E 005°36'0 0.3
2017-May-18 05:20N 60°13' E 005°35'1 2.3
2017-May-18 04:49N 60°13' E 005°33'0 1.5
2017-May-18 04:30N 60°13' E 005°34'1 1.8
2017-May-18 04:00N 60°12' E 005°36'0 0.2
2017-May-18 03:29N 60°12' E 005°36'0 0.0
2017-May-18 02:59N 60°12' E 005°36'0 0.0
2017-May-18 02:30N 60°12' E 005°36'0 0.0
2017-May-18 02:00N 60°12' E 005°36'0 0.0
2017-May-18 01:30N 60°12' E 005°36'0 0.0
2017-May-18 01:00N 60°12' E 005°36'0 0.0
2017-May-18 00:30N 60°12' E 005°36'0 0.0
2017-May-18 00:00N 60°12' E 005°36'0 0.0
2017-May-17 23:30N 60°12' E 005°36'1 2.4
2017-May-17 23:00N 60°12' E 005°34'612.5
2017-May-17 22:30N 60°08' E 005°24'612.0
2017-May-17 22:00N 60°07' E 005°12'510.2
2017-May-17 21:30N 60°12' E 005°17'1 2.1
2017-May-17 21:00N 60°11' E 005°17'3 6.1
2017-May-17 20:30N 60°08' E 005°13'611.6
2017-May-17 20:00N 60°13' E 005°17'2 3.8
2017-May-17 19:30N 60°12' E 005°17'2 3.1
2017-May-17 18:46N 60°09' E 005°16'413.1
2017-May-17 18:30N 60°13' E 005°18'3 7.0
2017-May-17 18:00N 60°10' E 005°16'1 2.4
2017-May-17 17:30N 60°09' E 005°15'510.3
2017-May-17 17:00N 60°13' E 005°17'611.2
2017-May-17 16:30N 60°08' E 005°14'3 5.2
2017-May-17 16:00N 60°10' E 005°16'  

Dump ship's entire track history